createdAt,value
2017-11-16T00:00:11.707Z,23.50
2017-11-16T00:02:40.000Z,21.47
2017-11-16T00:05:07.575Z,23.40
2017-11-16T00:07:35.519Z,21.03
2017-11-16T00:10:03.839Z,28.90
2017-11-16T00:12:32.135Z,25.87
2017-11-16T00:15:00.523Z,24.70
2017-11-16T00:17:28.815Z,26.17
2017-11-16T00:19:57.113Z,28.87
2017-11-16T00:22:25.442Z,24.17
2017-11-16T00:24:56.524Z,24.27
2017-11-16T00:27:24.839Z,22.73
2017-11-16T00:29:53.871Z,20.90
2017-11-16T00:32:21.424Z,22.03
2017-11-16T00:34:48.961Z,22.53
2017-11-16T00:37:16.909Z,24.80
2017-11-16T00:39:45.213Z,21.47
2017-11-16T00:42:13.533Z,21.97
2017-11-16T00:44:41.841Z,26.10
2017-11-16T00:47:10.148Z,25.97
2017-11-16T00:49:38.448Z,24.03
2017-11-16T00:52:06.923Z,25.33
2017-11-16T00:54:35.212Z,23.93
2017-11-16T00:57:03.720Z,27.93
2017-11-16T00:59:32.012Z,28.27
2017-11-16T01:02:00.327Z,28.80
2017-11-16T01:04:28.631Z,21.43
2017-11-16T01:06:56.943Z,26.53
2017-11-16T01:09:25.236Z,30.60
2017-11-16T01:11:53.661Z,27.60
2017-11-16T01:14:21.946Z,25.70
2017-11-16T01:16:50.240Z,30.60
2017-11-16T01:19:18.610Z,26.27
2017-11-16T01:21:46.903Z,28.20
2017-11-16T01:24:15.211Z,30.87
2017-11-16T01:26:43.587Z,28.60
2017-11-16T01:29:11.898Z,32.00
2017-11-16T01:31:40.188Z,31.03
2017-11-16T01:34:08.498Z,29.83
2017-11-16T01:36:36.786Z,28.70
2017-11-16T01:39:04.329Z,28.77
2017-11-16T01:41:32.245Z,27.07
2017-11-16T01:44:00.595Z,25.17
2017-11-16T01:46:28.890Z,26.47
2017-11-16T01:48:57.210Z,28.20
2017-11-16T01:51:25.587Z,29.27
2017-11-16T01:53:53.907Z,31.70
2017-11-16T01:56:22.191Z,28.07
2017-11-16T01:58:50.504Z,32.00
2017-11-16T02:01:18.787Z,32.07
2017-11-16T02:03:47.107Z,38.63
2017-11-16T02:06:14.661Z,32.00
2017-11-16T02:08:43.000Z,28.83
2017-11-16T02:11:10.948Z,33.23
2017-11-16T02:13:39.239Z,35.90
2017-11-16T02:16:07.631Z,31.83
2017-11-16T02:18:35.936Z,32.07
2017-11-16T02:21:04.256Z,33.10
2017-11-16T02:23:33.288Z,37.33
2017-11-16T02:26:00.829Z,36.53
2017-11-16T02:28:29.119Z,32.40
2017-11-16T02:30:57.679Z,39.23
2017-11-16T02:33:25.974Z,31.63
2017-11-16T02:35:54.293Z,29.10
2017-11-16T02:38:22.575Z,30.97
2017-11-16T02:40:51.055Z,29.47
2017-11-16T02:43:19.604Z,32.23
2017-11-16T02:45:47.555Z,29.80
2017-11-16T02:48:15.899Z,33.43
2017-11-16T02:50:44.229Z,35.23
2017-11-16T02:53:12.523Z,32.27
2017-11-16T02:55:40.813Z,32.57
2017-11-16T02:58:09.124Z,34.53
2017-11-16T03:00:36.676Z,39.00
2017-11-16T03:03:04.621Z,31.53
2017-11-16T03:05:32.907Z,34.90
2017-11-16T03:08:01.220Z,35.30
2017-11-16T03:10:29.515Z,35.30
2017-11-16T03:12:57.927Z,27.93
2017-11-16T03:15:26.360Z,31.53
2017-11-16T03:17:54.672Z,36.00
2017-11-16T03:20:22.962Z,39.10
2017-11-16T03:22:51.305Z,33.93
2017-11-16T03:25:19.615Z,32.10
2017-11-16T03:27:47.935Z,32.83
2017-11-16T03:30:16.238Z,32.10
2017-11-16T03:32:44.704Z,37.10
2017-11-16T03:35:13.020Z,28.17
2017-11-16T03:37:41.307Z,33.97
2017-11-16T03:40:09.618Z,28.30
2017-11-16T03:42:37.904Z,35.27
2017-11-16T03:45:06.236Z,27.90
2017-11-16T03:47:34.646Z,28.77
2017-11-16T03:50:02.972Z,30.77
2017-11-16T03:52:31.324Z,35.67
2017-11-16T03:54:59.643Z,32.10
2017-11-16T03:57:28.018Z,30.80
2017-11-16T03:59:56.324Z,30.40
2017-11-16T04:02:23.847Z,30.33
2017-11-16T04:04:51.798Z,35.73
2017-11-16T04:07:20.832Z,28.47
2017-11-16T04:09:50.019Z,32.30
2017-11-16T04:12:19.463Z,33.10
2017-11-16T04:14:48.654Z,31.50
2017-11-16T04:17:17.951Z,32.87
2017-11-16T04:19:47.140Z,32.73
2017-11-16T04:22:16.318Z,33.23
2017-11-16T04:24:45.520Z,33.43
2017-11-16T04:27:14.736Z,31.60
2017-11-16T04:29:43.918Z,37.20
2017-11-16T04:32:13.110Z,32.37
2017-11-16T04:34:42.285Z,32.83
2017-11-16T04:37:11.487Z,30.63
2017-11-16T04:39:40.671Z,30.90
2017-11-16T04:42:09.876Z,33.50
2017-11-16T04:44:39.052Z,38.80
2017-11-16T04:47:08.244Z,34.33
2017-11-16T04:49:37.418Z,34.60
2017-11-16T04:52:06.613Z,33.20
2017-11-16T04:54:35.779Z,35.97
2017-11-16T04:57:04.971Z,31.30
2017-11-16T04:59:36.841Z,34.63
2017-11-16T05:02:06.046Z,36.97
2017-11-16T05:04:35.236Z,31.87
2017-11-16T05:07:04.435Z,30.27
2017-11-16T05:09:33.632Z,32.50
2017-11-16T05:12:03.002Z,35.17
2017-11-16T05:14:32.221Z,33.40
2017-11-16T05:17:01.432Z,33.60
2017-11-16T05:19:30.606Z,33.77
2017-11-16T05:21:59.810Z,29.23
2017-11-16T05:24:28.980Z,37.37
2017-11-16T05:26:58.193Z,34.33
2017-11-16T05:29:27.365Z,31.27
2017-11-16T05:31:57.001Z,30.23
2017-11-16T05:34:26.505Z,32.93
2017-11-16T05:36:55.702Z,37.07
2017-11-16T05:39:24.888Z,39.00
2017-11-16T05:41:54.102Z,38.67
2017-11-16T05:44:23.294Z,33.20
2017-11-16T05:46:52.572Z,31.83
2017-11-16T05:49:21.768Z,30.90
2017-11-16T05:51:50.974Z,38.33
2017-11-16T05:54:20.178Z,36.50
2017-11-16T05:56:49.352Z,28.50
2017-11-16T05:59:18.573Z,32.73
2017-11-16T06:01:47.766Z,33.93
2017-11-16T06:04:16.965Z,29.00
2017-11-16T06:06:46.159Z,33.37
2017-11-16T06:09:15.355Z,34.33
2017-11-16T06:11:44.550Z,33.47
2017-11-16T06:14:13.752Z,30.83
2017-11-16T06:16:42.926Z,32.90
2017-11-16T06:19:12.143Z,34.37
2017-11-16T06:21:41.491Z,30.77
2017-11-16T06:24:10.682Z,26.40
2017-11-16T06:26:39.857Z,32.17
2017-11-16T06:29:09.076Z,31.43
2017-11-16T06:31:38.254Z,33.43
2017-11-16T06:34:07.444Z,28.00
2017-11-16T06:36:36.627Z,33.50
2017-11-16T06:39:06.208Z,37.90
2017-11-16T06:41:35.472Z,36.10
2017-11-16T06:44:04.679Z,35.67
2017-11-16T06:46:33.993Z,38.77
2017-11-16T06:49:03.179Z,34.17
2017-11-16T06:51:32.354Z,31.60
2017-11-16T06:54:01.816Z,38.83
2017-11-16T06:56:30.991Z,30.60
2017-11-16T06:59:00.489Z,32.30
2017-11-16T07:01:29.691Z,30.20
2017-11-16T07:03:58.879Z,32.93
2017-11-16T07:06:28.078Z,31.40
2017-11-16T07:08:57.252Z,39.47
2017-11-16T07:11:26.450Z,35.57
2017-11-16T07:13:55.641Z,33.20
2017-11-16T07:16:24.838Z,36.37
2017-11-16T07:18:54.028Z,38.17
2017-11-16T07:21:23.236Z,32.43
2017-11-16T07:23:52.476Z,30.10
2017-11-16T07:26:21.674Z,38.00
2017-11-16T07:28:50.860Z,32.90
2017-11-16T07:31:20.058Z,33.40
2017-11-16T07:33:49.234Z,34.57
2017-11-16T07:36:18.422Z,31.97
2017-11-16T07:38:47.586Z,34.20
2017-11-16T07:41:16.815Z,32.13
2017-11-16T07:43:45.999Z,31.07
2017-11-16T07:46:15.216Z,42.90
2017-11-16T07:48:44.388Z,35.53
2017-11-16T07:51:13.574Z,35.83
2017-11-16T07:53:42.753Z,36.97
2017-11-16T07:56:11.958Z,37.03
2017-11-16T07:58:41.145Z,34.83
2017-11-16T08:01:10.693Z,37.33
2017-11-16T08:03:39.879Z,44.17
2017-11-16T08:06:09.484Z,36.50
2017-11-16T08:08:38.681Z,35.87
2017-11-16T08:11:07.859Z,40.93
2017-11-16T08:13:37.352Z,35.60
2017-11-16T08:16:06.527Z,33.90
2017-11-16T08:18:35.719Z,34.60
2017-11-16T08:21:04.896Z,29.27
2017-11-16T08:23:34.422Z,38.33
2017-11-16T08:26:03.607Z,33.50
2017-11-16T08:28:32.812Z,35.37
2017-11-16T08:31:01.985Z,31.73
2017-11-16T08:33:31.183Z,40.27
2017-11-16T08:36:00.380Z,36.47
2017-11-16T08:38:29.574Z,30.07
2017-11-16T08:40:58.747Z,32.70
2017-11-16T08:43:27.944Z,35.37
2017-11-16T08:45:57.119Z,37.90
2017-11-16T08:48:25.457Z,17.77
2017-11-16T08:50:53.012Z,22.87
2017-11-16T08:53:21.164Z,28.67
2017-11-16T08:55:50.050Z,32.67
2017-11-16T08:58:17.994Z,25.50
2017-11-16T09:00:45.578Z,28.70
2017-11-16T09:03:13.500Z,31.70
2017-11-16T09:05:41.955Z,29.17
2017-11-16T09:08:10.677Z,34.10
2017-11-16T09:10:38.638Z,35.23
2017-11-16T09:13:06.927Z,31.00
2017-11-16T09:15:35.479Z,29.50
2017-11-16T09:18:07.850Z,31.63
2017-11-16T09:20:35.848Z,33.23
2017-11-16T09:23:04.202Z,31.40
2017-11-16T09:25:32.627Z,33.47
2017-11-16T09:28:00.961Z,38.77
2017-11-16T09:30:29.259Z,36.37
2017-11-16T09:32:57.558Z,31.10
2017-11-16T09:35:25.509Z,33.77
2017-11-16T09:37:53.800Z,32.87
2017-11-16T09:40:21.383Z,39.93
2017-11-16T09:42:49.843Z,34.80
2017-11-16T09:45:18.901Z,35.57
2017-11-16T09:47:47.214Z,34.37
2017-11-16T09:50:15.166Z,29.20
2017-11-16T09:52:43.080Z,34.93
2017-11-16T09:55:10.949Z,35.90
2017-11-16T09:57:39.364Z,35.13
2017-11-16T10:00:06.914Z,30.33
2017-11-16T10:02:34.446Z,31.43
2017-11-16T10:05:02.740Z,28.43
2017-11-16T10:07:30.276Z,23.70
2017-11-16T10:09:58.564Z,26.90
2017-11-16T10:12:26.103Z,28.30
2017-11-16T10:14:53.627Z,31.83
2017-11-16T10:17:21.940Z,28.27
2017-11-16T10:19:49.461Z,25.47
2017-11-16T10:22:16.999Z,27.50
2017-11-16T10:24:44.528Z,27.00
2017-11-16T10:27:12.062Z,22.23
2017-11-16T10:29:39.587Z,25.30
2017-11-16T10:32:07.128Z,23.10
2017-11-16T10:34:34.657Z,22.77
2017-11-16T10:37:02.214Z,24.00
2017-11-16T10:39:30.139Z,28.23
2017-11-16T10:41:57.679Z,31.40
2017-11-16T10:44:25.199Z,32.50
2017-11-16T10:46:52.732Z,26.97
2017-11-16T10:49:20.500Z,22.73
2017-11-16T10:51:48.048Z,31.07
2017-11-16T10:54:15.579Z,22.07
2017-11-16T10:56:43.903Z,32.70
2017-11-16T10:59:11.438Z,29.00
2017-11-16T11:01:38.978Z,31.73
2017-11-16T11:04:06.507Z,22.10
2017-11-16T11:06:34.036Z,25.10
2017-11-16T11:09:01.575Z,26.23
2017-11-16T11:11:29.091Z,24.97
2017-11-16T11:13:57.259Z,19.60
2017-11-16T11:16:24.780Z,20.90
2017-11-16T11:18:52.323Z,19.23
2017-11-16T11:21:19.843Z,19.00
2017-11-16T11:23:47.383Z,21.30
2017-11-16T11:26:15.438Z,18.67
2017-11-16T11:28:43.366Z,21.27
2017-11-16T11:31:10.874Z,17.40
2017-11-16T11:33:38.436Z,21.70
2017-11-16T11:36:06.728Z,18.43
2017-11-16T11:38:34.267Z,19.90
2017-11-16T11:41:02.755Z,24.37
2017-11-16T11:43:30.304Z,22.13
2017-11-16T11:45:57.841Z,19.20
2017-11-16T11:48:25.784Z,19.90
2017-11-16T11:50:54.080Z,19.93
2017-11-16T11:53:21.627Z,16.97
2017-11-16T11:55:49.912Z,20.70
2017-11-16T11:58:18.209Z,17.37
2017-11-16T12:00:45.758Z,23.80
2017-11-16T12:03:13.310Z,21.80
2017-11-16T12:05:41.626Z,25.10
2017-11-16T12:08:09.153Z,22.03
2017-11-16T12:10:37.095Z,16.83
2017-11-16T12:13:05.175Z,25.13
2017-11-16T12:15:32.720Z,18.20
2017-11-16T12:18:00.247Z,20.10
2017-11-16T12:20:27.791Z,20.50
2017-11-16T12:22:55.313Z,17.87
2017-11-16T12:25:22.861Z,19.20
2017-11-16T12:27:50.388Z,22.07
2017-11-16T12:30:19.162Z,18.70
2017-11-16T12:32:47.608Z,30.00
2017-11-16T12:35:15.156Z,19.80
2017-11-16T12:37:42.729Z,25.93
2017-11-16T12:40:10.264Z,21.20
2017-11-16T12:42:37.830Z,18.60
2017-11-16T12:45:09.679Z,23.00
2017-11-16T12:47:37.276Z,20.57
2017-11-16T12:50:05.656Z,21.00
2017-11-16T12:52:34.067Z,20.20
2017-11-16T12:55:02.363Z,22.20
2017-11-16T12:57:30.479Z,21.00
2017-11-16T12:59:59.632Z,22.07
2017-11-16T13:02:27.175Z,18.23
2017-11-16T13:04:54.736Z,22.97
2017-11-16T13:07:23.413Z,20.90
2017-11-16T13:09:50.932Z,19.47
2017-11-16T13:12:19.145Z,19.73
2017-11-16T13:14:47.434Z,20.00
2017-11-16T13:17:15.001Z,27.17
2017-11-16T13:19:42.552Z,18.43
2017-11-16T13:22:12.068Z,22.47
2017-11-16T13:24:39.602Z,22.93
2017-11-16T13:27:07.135Z,18.90
2017-11-16T13:29:34.771Z,16.90
2017-11-16T13:32:03.128Z,18.57
2017-11-16T13:34:30.652Z,19.30
2017-11-16T13:36:58.976Z,23.77
2017-11-16T13:39:26.503Z,16.37
2017-11-16T13:41:54.818Z,22.30
2017-11-16T13:44:23.603Z,22.03
2017-11-16T13:46:51.552Z,21.73
2017-11-16T13:49:19.864Z,20.50
2017-11-16T13:51:48.406Z,20.93
2017-11-16T13:54:16.748Z,21.07
2017-11-16T13:56:45.047Z,21.47
2017-11-16T13:59:13.374Z,26.40
2017-11-16T14:01:41.668Z,23.80
2017-11-16T14:04:09.981Z,19.03
2017-11-16T14:06:37.511Z,21.83
2017-11-16T14:09:05.525Z,22.60
2017-11-16T14:11:33.860Z,21.50
2017-11-16T14:14:02.251Z,23.10
2017-11-16T14:16:30.371Z,28.00
2017-11-16T14:18:59.388Z,27.63
2017-11-16T14:21:26.931Z,21.27
2017-11-16T14:23:56.915Z,21.97
2017-11-16T14:26:25.203Z,23.10
2017-11-16T14:28:53.504Z,21.10
2017-11-16T14:31:21.790Z,18.40
2017-11-16T14:33:50.096Z,20.57
2017-11-16T14:36:18.851Z,20.97
2017-11-16T14:38:46.780Z,16.23
2017-11-16T14:41:16.886Z,20.20
2017-11-16T14:43:44.796Z,21.37
2017-11-16T14:46:13.106Z,17.90
2017-11-16T14:48:41.428Z,18.87
2017-11-16T14:51:09.982Z,19.47
2017-11-16T14:53:38.300Z,17.97
2017-11-16T14:56:07.415Z,19.80
2017-11-16T14:58:34.952Z,17.57
2017-11-16T15:01:03.383Z,18.90
2017-11-16T15:03:32.733Z,23.43
2017-11-16T15:06:01.596Z,22.77
2017-11-16T15:08:29.529Z,20.27
2017-11-16T15:10:57.843Z,19.40
2017-11-16T15:13:26.146Z,24.50
2017-11-16T15:15:54.495Z,20.03
2017-11-16T15:18:22.792Z,20.67
2017-11-16T15:20:52.467Z,19.30
2017-11-16T15:23:20.751Z,20.57
2017-11-16T15:25:49.959Z,20.20
2017-11-16T15:28:18.286Z,25.27
2017-11-16T15:30:46.660Z,19.17
2017-11-16T15:33:15.179Z,19.90
2017-11-16T15:35:43.477Z,20.77
2017-11-16T15:38:11.795Z,23.50
2017-11-16T15:40:39.929Z,23.40
2017-11-16T15:43:08.011Z,22.70
2017-11-16T15:45:35.922Z,22.60
2017-11-16T15:48:03.464Z,20.10
2017-11-16T15:50:31.773Z,21.87
2017-11-16T15:52:59.715Z,26.63
2017-11-16T15:55:28.002Z,21.77
2017-11-16T15:57:56.330Z,25.03
2017-11-16T16:00:24.630Z,21.57
2017-11-16T16:02:52.939Z,20.63
2017-11-16T16:05:21.231Z,24.53
2017-11-16T16:07:49.554Z,24.63
2017-11-16T16:10:17.920Z,19.87
2017-11-16T16:12:46.235Z,23.93
2017-11-16T16:15:14.543Z,28.13
2017-11-16T16:17:42.855Z,24.93
2017-11-16T16:20:11.182Z,23.90
2017-11-16T16:22:39.511Z,24.77
2017-11-16T16:25:07.810Z,23.60
2017-11-16T16:27:36.166Z,19.90
2017-11-16T16:30:04.566Z,24.70
2017-11-16T16:32:32.867Z,24.53
2017-11-16T16:35:01.582Z,25.20
2017-11-16T16:37:30.381Z,24.03
2017-11-16T16:39:57.942Z,21.40
2017-11-16T16:42:26.403Z,20.53
2017-11-16T16:44:55.931Z,26.27
2017-11-16T16:47:24.223Z,23.50
2017-11-16T16:49:53.304Z,24.37
2017-11-16T16:52:20.861Z,26.97
2017-11-16T16:54:49.346Z,29.00
2017-11-16T16:57:17.639Z,21.47
2017-11-16T16:59:45.965Z,30.33
2017-11-16T17:02:14.275Z,25.87
2017-11-16T17:04:42.646Z,22.27
2017-11-16T17:07:11.283Z,25.53
2017-11-16T17:09:43.027Z,24.73
2017-11-16T17:12:12.118Z,27.53
2017-11-16T17:14:40.060Z,27.83
2017-11-16T17:17:09.068Z,22.03
2017-11-16T17:19:36.957Z,28.37
2017-11-16T17:22:05.780Z,31.90
2017-11-16T17:24:34.102Z,28.23
2017-11-16T17:27:01.665Z,25.57
2017-11-16T17:29:29.219Z,29.83
2017-11-16T17:31:57.230Z,32.13
2017-11-16T17:34:25.562Z,24.20
2017-11-16T17:36:53.855Z,28.57
2017-11-16T17:39:22.167Z,27.90
2017-11-16T17:41:50.476Z,29.40
2017-11-16T17:44:18.791Z,28.60
2017-11-16T17:46:47.094Z,28.27
2017-11-16T17:49:15.635Z,30.90
2017-11-16T17:51:43.955Z,27.73
2017-11-16T17:54:12.261Z,24.90
2017-11-16T17:56:40.847Z,23.30
2017-11-16T17:59:08.857Z,28.70
2017-11-16T18:01:37.179Z,27.40
2017-11-16T18:04:06.206Z,26.20
2017-11-16T18:06:34.159Z,25.30
2017-11-16T18:09:02.084Z,32.93
2017-11-16T18:11:30.394Z,26.20
2017-11-16T18:13:58.972Z,25.80
2017-11-16T18:16:28.207Z,24.53
2017-11-16T18:18:55.735Z,32.33
2017-11-16T18:21:24.079Z,31.23
2017-11-16T18:23:53.295Z,26.03
2017-11-16T18:26:23.293Z,24.83
2017-11-16T18:28:50.815Z,29.60
2017-11-16T18:31:18.733Z,29.10
2017-11-16T18:33:47.056Z,27.30
2017-11-16T18:36:15.344Z,23.83
2017-11-16T18:38:43.669Z,27.13
2017-11-16T18:41:12.928Z,35.00
2017-11-16T18:43:40.623Z,38.90
2017-11-16T18:46:08.912Z,26.77
2017-11-16T18:48:37.224Z,28.40
2017-11-16T18:51:05.566Z,30.20
2017-11-16T18:53:33.883Z,30.43
2017-11-16T18:56:02.182Z,32.20
2017-11-16T18:58:30.484Z,26.87
2017-11-16T19:00:59.372Z,29.07
2017-11-16T19:03:27.311Z,28.53
2017-11-16T19:05:55.600Z,30.73
2017-11-16T19:08:23.915Z,27.60
2017-11-16T19:10:52.204Z,27.00
2017-11-16T19:13:20.503Z,31.17
2017-11-16T19:15:48.831Z,31.37
2017-11-16T19:18:17.126Z,31.97
2017-11-16T19:20:45.444Z,35.23
2017-11-16T19:23:13.802Z,29.87
2017-11-16T19:25:42.112Z,32.97
2017-11-16T19:28:10.411Z,38.47
2017-11-16T19:30:38.759Z,29.17
2017-11-16T19:33:07.059Z,31.77
2017-11-16T19:35:34.605Z,36.10
2017-11-16T19:38:02.523Z,32.63
2017-11-16T19:40:30.884Z,32.27
2017-11-16T19:43:00.302Z,31.37
2017-11-16T19:45:28.421Z,36.30
2017-11-16T20:34:37.025Z,32.90
2017-11-16T20:37:20.876Z,35.20
2017-11-16T20:43:00.852Z,32.33
2017-11-16T20:45:34.857Z,36.53
2017-11-16T20:48:09.484Z,34.23
2017-11-16T20:50:44.674Z,36.30
2017-11-16T20:53:13.420Z,41.30
2017-11-16T20:55:44.186Z,38.83
2017-11-16T20:58:11.744Z,35.40
2017-11-16T21:00:42.383Z,37.93
2017-11-16T21:03:10.696Z,37.60
2017-11-16T21:05:38.351Z,33.23
2017-11-16T21:08:07.140Z,34.33
2017-11-16T21:10:35.431Z,35.53
2017-11-16T21:13:04.088Z,34.50
2017-11-16T21:15:31.608Z,35.57
2017-11-16T21:18:00.691Z,33.83
2017-11-16T21:20:29.206Z,34.43
2017-11-16T21:22:57.706Z,40.70
2017-11-16T21:25:26.032Z,37.23
2017-11-16T21:27:54.391Z,36.90
2017-11-16T21:30:22.709Z,36.20
2017-11-16T21:32:51.033Z,41.00
2017-11-16T21:35:20.314Z,33.13
2017-11-16T21:37:49.036Z,38.07
2017-11-16T21:40:17.361Z,36.70
2017-11-16T21:42:45.658Z,38.93
2017-11-16T21:45:13.981Z,35.93
2017-11-16T21:47:42.317Z,38.30
2017-11-16T21:50:10.651Z,38.37
2017-11-16T21:52:39.013Z,38.63
2017-11-16T21:55:07.862Z,35.87
2017-11-16T21:57:35.779Z,40.33
2017-11-16T22:00:04.108Z,36.00
2017-11-16T22:02:33.676Z,39.93
2017-11-16T22:05:01.995Z,33.80
2017-11-16T22:07:30.289Z,33.97
2017-11-16T22:09:58.596Z,38.40
2017-11-16T22:12:26.899Z,37.30
2017-11-16T22:14:55.257Z,38.37
2017-11-16T22:17:23.560Z,34.80
2017-11-16T22:19:52.826Z,38.23
2017-11-16T22:22:20.352Z,31.60
2017-11-16T22:24:48.717Z,35.37
2017-11-16T22:27:17.010Z,36.60
2017-11-16T22:29:45.327Z,33.90
2017-11-16T22:32:13.635Z,42.37
2017-11-16T22:34:42.900Z,42.50
2017-11-16T22:37:11.416Z,42.80
2017-11-16T22:39:40.493Z,34.53
2017-11-16T22:42:08.054Z,37.27
2017-11-16T22:44:36.940Z,35.37
2017-11-16T22:47:06.156Z,36.77
2017-11-16T22:49:35.527Z,36.90
2017-11-16T22:52:03.061Z,35.30
2017-11-16T22:54:30.987Z,36.93
2017-11-16T22:56:59.305Z,32.67
2017-11-16T22:59:27.823Z,38.53
2017-11-16T23:01:56.146Z,41.07
2017-11-16T23:04:24.443Z,40.57
2017-11-16T23:06:52.789Z,35.07
2017-11-16T23:09:21.100Z,37.70
2017-11-16T23:11:49.439Z,40.10
2017-11-16T23:14:17.757Z,37.93
2017-11-16T23:16:46.222Z,34.77
2017-11-16T23:19:14.795Z,39.63
2017-11-16T23:21:42.754Z,40.27
2017-11-16T23:24:11.100Z,34.20
2017-11-16T23:26:40.548Z,41.00
2017-11-16T23:29:08.848Z,39.17
2017-11-16T23:31:37.139Z,35.37
2017-11-16T23:34:05.456Z,41.30
2017-11-16T23:36:33.459Z,36.60
2017-11-16T23:39:01.027Z,35.23
2017-11-16T23:41:30.124Z,41.57
2017-11-16T23:43:57.672Z,37.70
2017-11-16T23:46:25.959Z,40.90
2017-11-16T23:48:54.264Z,38.20
2017-11-16T23:51:25.422Z,38.03
2017-11-16T23:53:54.613Z,38.03
2017-11-16T23:56:22.613Z,43.03
2017-11-16T23:58:50.154Z,41.47
